createdAt,value
2018-12-21T00:00:25.579Z,147.67
2018-12-21T00:02:32.254Z,142.27
2018-12-21T00:04:38.838Z,150.07
2018-12-21T00:06:45.373Z,149.10
2018-12-21T00:08:51.862Z,156.07
2018-12-21T00:10:58.669Z,149.27
2018-12-21T00:13:05.503Z,149.83
2018-12-21T00:15:12.181Z,162.65
2018-12-21T00:17:18.852Z,139.63
2018-12-21T00:19:25.346Z,160.85
2018-12-21T00:21:32.676Z,134.60
2018-12-21T00:23:39.207Z,139.20
2018-12-21T00:25:46.181Z,115.15
2018-12-21T00:27:53.301Z,121.00
2018-12-21T00:30:00.122Z,126.77
2018-12-21T00:32:11.222Z,135.37
2018-12-21T00:34:22.380Z,117.27
2018-12-21T00:36:33.785Z,128.27
2018-12-21T00:38:44.729Z,133.90
2018-12-21T00:40:56.011Z,134.80
2018-12-21T00:43:06.566Z,131.97
2018-12-21T00:45:18.397Z,131.80
2018-12-21T00:47:24.902Z,132.13
2018-12-21T00:49:31.513Z,126.53
2018-12-21T00:51:38.053Z,139.63
2018-12-21T00:53:44.604Z,127.03
2018-12-21T00:55:51.118Z,131.60
2018-12-21T00:57:57.546Z,128.20
2018-12-21T01:00:04.139Z,136.90
2018-12-21T01:02:10.748Z,136.77
2018-12-21T01:04:17.550Z,134.10
2018-12-21T01:06:24.188Z,135.03
2018-12-21T01:08:30.886Z,141.83
2018-12-21T01:10:37.478Z,135.87
2018-12-21T01:12:43.934Z,141.47
2018-12-21T01:14:50.862Z,141.97
2018-12-21T01:16:57.529Z,145.13
2018-12-21T01:19:04.510Z,135.73
2018-12-21T01:21:11.787Z,129.70
2018-12-21T01:23:18.278Z,132.63
2018-12-21T01:25:24.991Z,127.27
2018-12-21T01:27:32.148Z,126.83
2018-12-21T01:29:38.958Z,124.90
2018-12-21T01:31:45.590Z,121.93
2018-12-21T01:33:52.203Z,130.03
2018-12-21T01:35:58.870Z,121.87
2018-12-21T01:38:05.722Z,127.70
2018-12-21T01:40:12.451Z,128.37
2018-12-21T01:42:19.001Z,129.47
2018-12-21T01:44:25.528Z,130.07
2018-12-21T01:46:32.193Z,129.60
2018-12-21T01:48:38.839Z,121.07
2018-12-21T01:50:45.416Z,132.50
2018-12-21T01:52:52.023Z,112.33
2018-12-21T01:54:58.903Z,128.57
2018-12-21T01:57:05.466Z,130.13
2018-12-21T01:59:12.281Z,121.77
2018-12-21T02:01:19.179Z,126.23
2018-12-21T02:03:25.947Z,125.40
2018-12-21T02:05:32.684Z,131.37
2018-12-21T02:07:39.283Z,131.40
2018-12-21T02:09:46.148Z,128.80
2018-12-21T02:11:53.087Z,138.03
2018-12-21T02:13:59.678Z,138.73
2018-12-21T02:16:06.324Z,133.90
2018-12-21T02:18:12.932Z,133.93
2018-12-21T02:20:19.671Z,130.67
2018-12-21T02:22:26.946Z,133.33
2018-12-21T02:24:33.801Z,130.33
2018-12-21T02:26:41.182Z,131.83
2018-12-21T02:28:47.947Z,128.97
2018-12-21T02:30:55.210Z,131.13
2018-12-21T02:33:01.935Z,124.87
2018-12-21T02:35:08.619Z,124.37
2018-12-21T02:37:15.939Z,143.17
2018-12-21T02:39:22.740Z,115.43
2018-12-21T02:41:29.401Z,119.67
2018-12-21T02:43:35.779Z,134.27
2018-12-21T02:45:42.378Z,126.97
2018-12-21T02:47:49.218Z,103.07
2018-12-21T02:49:55.997Z,113.77
2018-12-21T02:52:05.745Z,120.40
2018-12-21T02:54:11.451Z,117.70
2018-12-21T02:56:18.147Z,123.10
2018-12-21T02:58:24.870Z,114.23
2018-12-21T03:00:31.608Z,137.07
2018-12-21T03:02:38.196Z,120.63
2018-12-21T03:04:44.750Z,127.23
2018-12-21T03:06:52.163Z,124.97
2018-12-21T03:08:59.105Z,130.73
2018-12-21T03:11:06.100Z,129.43
2018-12-21T03:13:13.199Z,133.83
2018-12-21T03:15:19.872Z,128.23
2018-12-21T03:17:26.571Z,133.97
2018-12-21T03:19:33.301Z,133.00
2018-12-21T03:21:40.252Z,134.30
2018-12-21T03:26:00.045Z,134.70
2018-12-21T03:30:45.593Z,126.27
2018-12-21T03:33:06.550Z,126.47
2018-12-21T03:35:20.616Z,122.20
2018-12-21T03:37:27.665Z,142.73
2018-12-21T03:39:49.728Z,128.70
2018-12-21T03:41:58.214Z,121.60
2018-12-21T03:44:10.849Z,130.83
2018-12-21T03:46:21.174Z,123.77
2018-12-21T03:48:29.952Z,121.00
2018-12-21T03:50:40.016Z,121.90
2018-12-21T03:52:53.130Z,135.23
2018-12-21T03:55:00.645Z,142.87
2018-12-21T03:57:07.550Z,132.50
2018-12-21T03:59:14.374Z,124.83
2018-12-21T04:01:21.442Z,141.60
2018-12-21T04:03:28.025Z,132.73
2018-12-21T04:05:34.566Z,141.70
2018-12-21T04:07:40.975Z,138.80
2018-12-21T04:09:47.507Z,145.80
2018-12-21T04:11:54.205Z,147.43
2018-12-21T04:14:00.695Z,152.97
2018-12-21T04:16:07.403Z,146.13
2018-12-21T04:18:14.386Z,154.73
2018-12-21T04:20:21.220Z,156.27
2018-12-21T04:22:33.958Z,157.40
2018-12-21T04:24:36.726Z,157.70
2018-12-21T04:26:43.309Z,149.97
2018-12-21T04:28:49.873Z,147.97
2018-12-21T04:30:57.482Z,139.57
2018-12-21T04:33:04.719Z,147.80
2018-12-21T04:35:11.257Z,143.33
2018-12-21T04:37:17.672Z,139.03
2018-12-21T04:39:24.533Z,134.90
2018-12-21T04:41:31.261Z,152.53
2018-12-21T04:43:37.848Z,136.00
2018-12-21T04:45:44.712Z,138.87
2018-12-21T04:47:51.881Z,138.53
2018-12-21T04:49:58.654Z,137.63
2018-12-21T04:52:05.294Z,146.73
2018-12-21T04:54:11.959Z,138.83
2018-12-21T04:56:18.816Z,140.67
2018-12-21T04:58:25.988Z,145.20
2018-12-21T05:00:32.604Z,141.43
2018-12-21T05:02:39.279Z,140.60
2018-12-21T05:04:46.109Z,142.43
2018-12-21T05:06:53.243Z,135.43
2018-12-21T05:09:00.000Z,140.47
2018-12-21T05:11:06.738Z,152.60
2018-12-21T05:13:13.452Z,154.87
2018-12-21T05:15:19.759Z,159.97
2018-12-21T05:17:26.396Z,151.00
2018-12-21T05:19:33.116Z,159.87
2018-12-21T05:21:39.580Z,150.53
2018-12-21T05:23:46.337Z,153.33
2018-12-21T05:25:53.083Z,161.70
2018-12-21T05:27:59.688Z,162.13
2018-12-21T05:30:06.284Z,163.10
2018-12-21T05:32:13.206Z,151.90
2018-12-21T05:34:19.680Z,143.07
2018-12-21T05:36:26.247Z,142.30
2018-12-21T05:38:32.670Z,147.63
2018-12-21T05:40:39.244Z,143.60
2018-12-21T05:42:45.989Z,144.33
2018-12-21T05:44:52.736Z,141.57
2018-12-21T05:47:00.402Z,141.77
2018-12-21T05:49:07.516Z,144.53
2018-12-21T05:51:14.222Z,150.30
2018-12-21T05:53:21.162Z,143.47
2018-12-21T05:55:27.865Z,148.77
2018-12-21T05:57:34.691Z,143.40
2018-12-21T05:59:41.431Z,151.13
2018-12-21T06:01:47.941Z,147.47
2018-12-21T06:03:54.511Z,153.77
2018-12-21T06:06:01.128Z,150.37
2018-12-21T06:08:07.655Z,147.27
2018-12-21T06:10:14.411Z,154.13
2018-12-21T06:12:20.915Z,150.20
2018-12-21T06:14:27.585Z,164.97
2018-12-21T06:16:34.454Z,162.43
2018-12-21T06:18:41.514Z,159.43
2018-12-21T06:20:48.359Z,157.47
2018-12-21T06:22:55.123Z,164.20
2018-12-21T06:25:01.791Z,163.20
2018-12-21T06:27:08.431Z,161.97
2018-12-21T06:29:15.200Z,151.90
2018-12-21T06:31:21.849Z,153.07
2018-12-21T06:33:28.427Z,152.90
2018-12-21T06:35:34.989Z,149.90
2018-12-21T06:37:41.515Z,151.67
2018-12-21T06:39:48.331Z,151.87
2018-12-21T06:41:54.970Z,146.50
2018-12-21T06:44:01.450Z,145.17
2018-12-21T06:46:14.103Z,152.37
2018-12-21T06:48:17.080Z,141.73
2018-12-21T06:50:23.822Z,149.77
2018-12-21T06:52:30.488Z,144.97
2018-12-21T06:54:37.062Z,131.00
2018-12-21T06:56:44.359Z,127.87
2018-12-21T06:58:51.096Z,117.33
2018-12-21T07:00:57.771Z,116.37
2018-12-21T07:03:04.269Z,115.60
2018-12-21T07:05:10.820Z,134.03
2018-12-21T07:07:17.350Z,135.93
2018-12-21T07:09:23.838Z,138.10
2018-12-21T07:11:30.698Z,153.83
2018-12-21T07:13:37.328Z,153.10
2018-12-21T07:15:43.910Z,150.90
2018-12-21T07:17:50.646Z,154.23
2018-12-21T07:19:57.380Z,149.00
2018-12-21T07:22:04.354Z,137.97
2018-12-21T07:24:17.142Z,132.23
2018-12-21T07:26:24.050Z,116.63
2018-12-21T07:28:30.718Z,112.23
2018-12-21T07:30:37.338Z,109.03
2018-12-21T07:32:44.226Z,106.60
2018-12-21T07:34:50.783Z,106.60
2018-12-21T07:36:57.542Z,108.67
2018-12-21T07:39:04.945Z,119.73
2018-12-21T07:41:11.610Z,143.30
2018-12-21T07:43:18.177Z,128.53
2018-12-21T07:45:24.946Z,130.17
2018-12-21T07:47:32.233Z,138.37
2018-12-21T07:49:38.976Z,139.00
2018-12-21T07:51:45.567Z,138.97
2018-12-21T07:53:52.137Z,148.97
2018-12-21T07:55:59.006Z,147.20
2018-12-21T07:58:05.578Z,144.90
2018-12-21T08:00:13.997Z,146.63
2018-12-21T08:02:20.670Z,146.23
2018-12-21T08:04:27.463Z,148.33
2018-12-21T08:06:34.267Z,154.17
2018-12-21T08:08:40.879Z,151.63
2018-12-21T08:10:47.691Z,156.03
2018-12-21T08:12:54.134Z,156.10
2018-12-21T08:15:01.022Z,155.17
2018-12-21T08:17:07.642Z,158.23
2018-12-21T08:19:14.216Z,156.07
2018-12-21T08:21:20.985Z,148.13
2018-12-21T08:23:28.441Z,140.60
2018-12-21T08:25:35.203Z,132.97
2018-12-21T08:27:42.066Z,128.17
2018-12-21T08:29:48.660Z,127.27
2018-12-21T08:31:55.309Z,122.37
2018-12-21T08:34:02.024Z,116.43
2018-12-21T08:36:08.992Z,113.90
2018-12-21T08:38:15.854Z,128.33
2018-12-21T08:40:22.408Z,143.80
2018-12-21T08:42:29.009Z,146.23
2018-12-21T08:44:35.716Z,140.40
2018-12-21T08:46:42.266Z,144.13
2018-12-21T08:48:48.813Z,144.13
2018-12-21T08:50:55.273Z,147.73
2018-12-21T08:53:01.936Z,151.40
2018-12-21T08:55:08.829Z,156.07
2018-12-21T08:57:15.370Z,158.47
2018-12-21T08:59:22.517Z,163.23
2018-12-21T09:01:29.282Z,159.87
2018-12-21T09:03:36.085Z,165.37
2018-12-21T09:05:42.878Z,164.73
2018-12-21T09:07:49.976Z,165.00
2018-12-21T09:09:56.660Z,163.90
2018-12-21T09:12:03.403Z,172.93
2018-12-21T09:14:10.185Z,168.00
2018-12-21T09:16:16.699Z,167.83
2018-12-21T09:18:23.265Z,170.87
2018-12-21T09:20:30.089Z,168.57
2018-12-21T09:22:36.560Z,169.93
2018-12-21T09:24:43.393Z,164.37
2018-12-21T09:26:49.917Z,147.47
2018-12-21T09:28:56.502Z,140.20
2018-12-21T09:31:03.316Z,129.10
2018-12-21T09:33:09.815Z,130.67
2018-12-21T09:35:16.764Z,125.43
2018-12-21T09:37:23.557Z,120.50
2018-12-21T09:39:30.103Z,118.77
2018-12-21T09:41:36.769Z,120.17
2018-12-21T09:43:43.555Z,153.00
2018-12-21T09:45:50.066Z,150.07
2018-12-21T09:47:56.313Z,145.50
2018-12-21T09:50:02.927Z,140.23
2018-12-21T09:52:09.441Z,151.63
2018-12-21T09:54:15.957Z,152.93
2018-12-21T09:56:22.849Z,153.93
2018-12-21T09:58:29.283Z,161.37
2018-12-21T10:00:36.075Z,161.80
2018-12-21T10:02:43.009Z,166.53
2018-12-21T10:04:49.682Z,167.87
2018-12-21T10:06:56.202Z,165.70
2018-12-21T10:09:03.270Z,175.00
2018-12-21T10:11:09.918Z,176.27
2018-12-21T10:13:16.470Z,180.53
2018-12-21T10:15:23.744Z,176.97
2018-12-21T10:17:30.390Z,178.47
2018-12-21T10:19:36.771Z,182.00
2018-12-21T10:21:43.335Z,179.13
2018-12-21T10:23:49.954Z,185.73
2018-12-21T10:25:56.776Z,182.87
2018-12-21T10:28:03.311Z,176.73
2018-12-21T10:30:11.805Z,173.67
2018-12-21T10:32:18.392Z,151.87
2018-12-21T10:34:24.907Z,145.77
2018-12-21T10:36:31.866Z,136.23
2018-12-21T10:38:38.565Z,130.27
2018-12-21T10:40:45.402Z,131.97
2018-12-21T10:42:51.977Z,122.90
2018-12-21T10:44:58.506Z,130.27
2018-12-21T10:47:05.333Z,123.40
2018-12-21T10:49:11.860Z,111.70
2018-12-21T10:51:18.264Z,112.23
2018-12-21T10:53:25.111Z,109.17
2018-12-21T10:55:31.707Z,109.33
2018-12-21T10:57:38.088Z,103.90
2018-12-21T10:59:44.804Z,103.13
2018-12-21T11:01:51.482Z,106.87
2018-12-21T11:03:58.209Z,102.47
2018-12-21T11:06:04.658Z,102.97
2018-12-21T11:08:11.125Z,101.77
2018-12-21T11:10:17.575Z,102.33
2018-12-21T11:12:24.119Z,98.80
2018-12-21T11:14:30.902Z,98.67
2018-12-21T11:16:37.535Z,99.03
2018-12-21T11:18:44.343Z,99.00
2018-12-21T11:20:50.858Z,97.10
2018-12-21T11:22:57.674Z,97.53
2018-12-21T11:25:04.350Z,95.33
2018-12-21T11:27:11.076Z,97.10
2018-12-21T11:29:18.004Z,94.53
2018-12-21T11:31:24.715Z,94.67
2018-12-21T11:33:31.411Z,94.40
2018-12-21T11:35:38.128Z,93.00
2018-12-21T11:37:44.578Z,90.20
2018-12-21T11:39:50.922Z,87.97
2018-12-21T11:41:57.429Z,84.27
2018-12-21T11:44:03.871Z,83.37
2018-12-21T11:46:10.549Z,82.93
2018-12-21T11:48:17.258Z,80.03
2018-12-21T11:50:23.919Z,77.07
2018-12-21T11:52:30.538Z,73.93
2018-12-21T11:54:44.162Z,69.87
2018-12-21T11:56:45.906Z,69.13
2018-12-21T11:58:52.699Z,68.53
2018-12-21T12:00:59.180Z,66.03
2018-12-21T12:03:05.902Z,65.40
2018-12-21T12:05:12.676Z,64.20
2018-12-21T12:07:19.327Z,64.33
2018-12-21T12:09:25.795Z,60.23
2018-12-21T12:11:32.422Z,60.17
2018-12-21T12:13:39.080Z,60.80
2018-12-21T12:15:45.682Z,60.80
2018-12-21T12:17:52.409Z,60.10
2018-12-21T12:19:58.994Z,58.03
2018-12-21T12:22:05.634Z,57.67
2018-12-21T12:24:12.298Z,57.63
2018-12-21T12:26:18.831Z,59.37
2018-12-21T12:28:25.565Z,57.50
2018-12-21T12:30:32.120Z,58.47
2018-12-21T12:32:38.489Z,55.83
2018-12-21T12:34:45.331Z,56.33
2018-12-21T12:39:13.250Z,54.67
2018-12-21T12:41:20.564Z,53.27
2018-12-21T12:43:27.335Z,51.20
2018-12-21T12:45:33.925Z,52.93
2018-12-21T12:47:40.213Z,50.17
2018-12-21T12:49:46.898Z,48.23
2018-12-21T12:51:53.513Z,47.70
2018-12-21T12:54:00.036Z,48.43
2018-12-21T12:56:06.598Z,47.57
2018-12-21T12:58:14.513Z,46.63
2018-12-21T13:00:21.466Z,44.83
2018-12-21T13:02:28.066Z,43.27
2018-12-21T13:04:34.587Z,44.73
2018-12-21T13:06:41.428Z,43.43
2018-12-21T13:08:47.979Z,43.30
2018-12-21T13:10:54.465Z,41.50
2018-12-21T13:13:01.905Z,39.90
2018-12-21T13:15:10.858Z,40.07
2018-12-21T13:17:17.767Z,39.60
2018-12-21T13:19:24.598Z,39.33
2018-12-21T13:21:31.206Z,39.17
2018-12-21T13:23:37.648Z,38.57
2018-12-21T13:25:44.420Z,38.97
2018-12-21T13:27:51.114Z,37.33
2018-12-21T13:29:57.760Z,38.23
2018-12-21T13:32:04.252Z,37.37
2018-12-21T13:34:10.713Z,38.07
2018-12-21T13:36:17.366Z,38.50
2018-12-21T13:38:24.241Z,37.10
2018-12-21T13:40:30.777Z,36.13
2018-12-21T13:42:37.266Z,36.23
2018-12-21T13:44:43.949Z,34.07
2018-12-21T13:46:50.640Z,35.77
2018-12-21T13:48:57.327Z,33.93
2018-12-21T13:51:04.085Z,34.27
2018-12-21T13:53:10.858Z,34.93
2018-12-21T13:55:20.466Z,33.80
2018-12-21T13:57:26.153Z,33.03
2018-12-21T13:59:32.910Z,33.87
2018-12-21T14:01:39.667Z,49.10
2018-12-21T14:03:46.487Z,57.13
2018-12-21T14:05:53.236Z,55.17
2018-12-21T14:07:59.760Z,68.37
2018-12-21T14:10:07.895Z,77.27
2018-12-21T14:12:14.452Z,68.30
2018-12-21T14:14:21.241Z,67.03
2018-12-21T14:16:28.206Z,71.60
2018-12-21T14:18:35.270Z,77.83
2018-12-21T14:20:42.069Z,67.53
2018-12-21T14:22:48.804Z,82.43
2018-12-21T14:24:55.960Z,68.20
2018-12-21T14:27:02.607Z,85.20
2018-12-21T14:29:09.298Z,69.87
2018-12-21T14:31:16.394Z,70.20
2018-12-21T14:33:23.202Z,70.83
2018-12-21T14:35:29.379Z,78.33
2018-12-21T14:37:35.814Z,83.27
2018-12-21T14:39:42.363Z,81.77
2018-12-21T14:41:49.153Z,78.43
2018-12-21T14:43:55.900Z,86.60
2018-12-21T14:46:02.724Z,77.33
2018-12-21T14:48:09.580Z,83.93
2018-12-21T14:50:16.558Z,80.70
2018-12-21T14:52:23.103Z,72.13
2018-12-21T14:54:29.746Z,78.13
2018-12-21T14:56:36.410Z,74.33
2018-12-21T14:58:43.015Z,75.73
2018-12-21T15:00:50.316Z,85.40
2018-12-21T15:02:57.173Z,82.33
2018-12-21T15:05:04.289Z,78.63
2018-12-21T15:07:11.257Z,89.00
2018-12-21T15:09:18.485Z,94.57
2018-12-21T15:11:25.386Z,82.53
2018-12-21T15:13:32.189Z,100.43
2018-12-21T15:15:39.105Z,88.63
2018-12-21T15:17:45.646Z,87.40
2018-12-21T15:19:52.334Z,105.77
2018-12-21T15:21:58.987Z,93.43
2018-12-21T15:24:05.816Z,92.30
2018-12-21T15:26:12.911Z,94.87
2018-12-21T15:28:19.622Z,96.03
2018-12-21T15:30:26.183Z,98.13
2018-12-21T15:32:32.990Z,99.73
2018-12-21T15:34:39.578Z,102.93
2018-12-21T15:36:46.650Z,98.30
2018-12-21T15:38:54.082Z,104.50
2018-12-21T15:41:01.071Z,95.10
2018-12-21T15:43:08.058Z,103.13
2018-12-21T15:45:14.980Z,87.47
2018-12-21T15:47:22.113Z,81.63
2018-12-21T15:49:28.844Z,95.47
2018-12-21T15:51:35.761Z,97.17
2018-12-21T15:53:41.939Z,107.57
2018-12-21T15:55:54.796Z,95.00
2018-12-21T15:57:57.299Z,83.63
2018-12-21T16:00:04.060Z,95.40
2018-12-21T16:02:10.797Z,89.10
2018-12-21T16:04:17.666Z,91.53
2018-12-21T16:06:24.995Z,93.57
2018-12-21T16:08:32.074Z,92.70
2018-12-21T16:10:38.906Z,96.30
2018-12-21T16:12:45.931Z,102.07
2018-12-21T16:14:52.849Z,104.00
2018-12-21T16:16:59.724Z,104.10
2018-12-21T16:19:06.373Z,105.37
2018-12-21T16:21:12.884Z,108.23
2018-12-21T16:23:19.936Z,112.07
2018-12-21T16:25:27.234Z,117.00
2018-12-21T16:27:34.151Z,115.80
2018-12-21T16:29:41.191Z,108.90
2018-12-21T16:31:48.761Z,116.73
2018-12-21T16:33:56.219Z,114.13
2018-12-21T16:36:04.202Z,109.37
2018-12-21T16:38:11.447Z,106.97
2018-12-21T16:40:18.192Z,102.20
2018-12-21T16:42:26.968Z,96.57
2018-12-21T16:44:33.588Z,111.73
2018-12-21T16:46:40.848Z,107.83
2018-12-21T16:48:47.882Z,111.87
2018-12-21T16:50:55.212Z,107.90
2018-12-21T16:53:01.943Z,106.30
2018-12-21T16:55:09.893Z,112.40
2018-12-21T16:57:17.207Z,107.80
2018-12-21T16:59:24.372Z,113.90
2018-12-21T17:01:31.684Z,116.43
2018-12-21T17:03:38.243Z,120.00
2018-12-21T17:05:44.726Z,115.80
2018-12-21T17:07:51.737Z,115.97
2018-12-21T17:09:58.473Z,114.70
2018-12-21T17:12:05.237Z,115.87
2018-12-21T17:14:12.148Z,116.87
2018-12-21T17:16:18.892Z,119.10
2018-12-21T17:18:27.455Z,120.77
2018-12-21T17:20:34.205Z,117.37
2018-12-21T17:22:41.048Z,126.77
2018-12-21T17:24:47.813Z,124.73
2018-12-21T17:26:55.177Z,125.73
2018-12-21T17:29:01.968Z,122.50
2018-12-21T17:31:08.882Z,125.60
2018-12-21T17:33:16.077Z,130.77
2018-12-21T17:35:23.066Z,128.63
2018-12-21T17:37:29.871Z,127.87
2018-12-21T17:39:36.639Z,136.50
2018-12-21T17:41:43.305Z,131.13
2018-12-21T17:43:49.958Z,131.50
2018-12-21T17:45:56.724Z,129.83
2018-12-21T17:48:03.914Z,132.73
2018-12-21T17:50:12.206Z,133.07
2018-12-21T17:52:18.942Z,132.40
2018-12-21T17:54:25.989Z,127.57
2018-12-21T17:56:34.603Z,127.63
2018-12-21T17:58:41.670Z,132.77
2018-12-21T18:00:48.265Z,131.77
2018-12-21T18:02:57.656Z,130.77
2018-12-21T18:05:04.555Z,129.93
2018-12-21T18:07:11.440Z,134.63
2018-12-21T18:09:18.144Z,134.00
2018-12-21T18:11:25.089Z,130.77
2018-12-21T18:13:31.700Z,129.83
2018-12-21T18:15:38.722Z,121.70
2018-12-21T18:17:45.473Z,116.37
2018-12-21T18:19:52.240Z,111.47
2018-12-21T18:22:07.435Z,106.93
2018-12-21T18:24:14.168Z,112.20
2018-12-21T18:26:20.895Z,117.77
2018-12-21T18:28:29.958Z,100.97
2018-12-21T18:30:43.783Z,109.50
2018-12-21T18:32:50.476Z,108.30
2018-12-21T18:34:59.570Z,103.77
2018-12-21T18:37:08.538Z,96.83
2018-12-21T18:39:15.151Z,95.80
2018-12-21T18:41:22.072Z,113.50
2018-12-21T18:43:29.205Z,107.27
2018-12-21T18:45:36.116Z,88.30
2018-12-21T18:47:42.586Z,95.77
2018-12-21T18:49:49.274Z,116.37
2018-12-21T18:51:56.033Z,110.17
2018-12-21T18:54:12.528Z,112.60
2018-12-21T18:56:23.318Z,110.83
2018-12-21T18:58:30.380Z,114.70
2018-12-21T19:00:36.921Z,109.70
2018-12-21T19:02:43.458Z,113.67
2018-12-21T19:04:50.111Z,110.83
2018-12-21T19:06:56.854Z,108.50
2018-12-21T19:09:03.498Z,104.83
2018-12-21T19:11:10.264Z,104.00
2018-12-21T19:13:17.017Z,93.27
2018-12-21T19:15:23.884Z,99.67
2018-12-21T19:17:54.644Z,96.67
2018-12-21T19:20:01.404Z,109.80
2018-12-21T19:22:08.127Z,108.07
2018-12-21T19:24:15.128Z,94.07
2018-12-21T19:26:21.872Z,108.77
2018-12-21T19:28:29.313Z,112.50
2018-12-21T19:30:36.168Z,118.13
2018-12-21T19:32:44.414Z,116.90
2018-12-21T19:34:50.992Z,120.17
2018-12-21T19:36:57.749Z,121.47
2018-12-21T19:39:05.237Z,123.10
2018-12-21T19:41:12.235Z,122.40
2018-12-21T19:43:27.985Z,123.53
2018-12-21T19:45:28.001Z,124.10
2018-12-21T19:47:34.645Z,122.80
2018-12-21T19:49:41.570Z,123.83
2018-12-21T19:51:48.218Z,121.20
2018-12-21T19:53:54.733Z,110.57
2018-12-21T19:57:26.650Z,111.20
2018-12-21T19:59:33.337Z,111.30
2018-12-21T20:01:39.871Z,99.03
2018-12-21T20:03:46.394Z,105.03
2018-12-21T20:05:53.237Z,107.23
2018-12-21T20:08:00.596Z,92.33
2018-12-21T20:10:08.108Z,105.67
2018-12-21T20:12:14.798Z,117.50
2018-12-21T20:14:21.757Z,123.73
2018-12-21T20:16:28.716Z,118.53
2018-12-21T20:18:35.490Z,124.47
2018-12-21T20:20:42.286Z,126.90
2018-12-21T20:22:48.958Z,132.50
2018-12-21T20:24:56.431Z,128.80
2018-12-21T20:27:15.172Z,126.40
2018-12-21T20:29:25.889Z,139.10
2018-12-21T20:31:32.934Z,134.53
2018-12-21T20:33:41.210Z,124.50
2018-12-21T20:35:48.176Z,125.53
2018-12-21T20:37:55.019Z,119.37
2018-12-21T20:40:02.033Z,118.67
2018-12-21T20:42:17.278Z,103.73
2018-12-21T20:44:23.951Z,108.83
2018-12-21T20:46:32.597Z,97.60
2018-12-21T20:48:39.608Z,102.63
2018-12-21T20:50:46.326Z,102.60
2018-12-21T20:52:53.243Z,103.60
2018-12-21T20:55:02.207Z,116.77
2018-12-21T20:57:11.001Z,124.03
2018-12-21T20:59:21.389Z,123.80
2018-12-21T21:01:28.253Z,121.93
2018-12-21T21:03:35.079Z,122.83
2018-12-21T21:05:44.007Z,120.63
2018-12-21T21:07:50.935Z,127.40
2018-12-21T21:10:13.005Z,113.77
2018-12-21T21:12:23.198Z,113.50
2018-12-21T21:14:38.874Z,120.73
2018-12-21T21:16:45.934Z,118.43
2018-12-21T21:18:53.132Z,109.80
2018-12-21T21:21:10.304Z,102.70
2018-12-21T21:23:30.582Z,107.93
2018-12-21T21:25:46.393Z,103.63
2018-12-21T21:27:53.032Z,89.17
2018-12-21T21:30:05.344Z,95.03
2018-12-21T21:32:18.969Z,95.10
2018-12-21T21:34:35.374Z,99.57
2018-12-21T21:36:42.606Z,112.17
2018-12-21T21:38:49.274Z,112.53
2018-12-21T21:40:56.138Z,111.73
2018-12-21T21:43:10.425Z,116.83
2018-12-21T21:48:09.147Z,118.80
2018-12-21T21:50:16.032Z,116.27
2018-12-21T21:52:22.597Z,117.73
2018-12-21T21:54:29.384Z,123.80
2018-12-21T21:56:36.154Z,125.33
2018-12-21T21:58:45.030Z,119.63
2018-12-21T22:01:00.892Z,105.47
2018-12-21T22:03:21.409Z,107.40
2018-12-21T22:05:44.300Z,105.93
2018-12-21T22:07:51.163Z,104.37
2018-12-21T22:09:58.050Z,100.00
2018-12-21T22:12:04.506Z,91.90
2018-12-21T22:14:11.077Z,97.50
2018-12-21T22:16:17.927Z,105.90
2018-12-21T22:18:24.615Z,110.60
2018-12-21T22:20:31.171Z,114.70
2018-12-21T22:22:37.733Z,108.03
2018-12-21T22:24:44.327Z,118.23
2018-12-21T22:26:51.054Z,113.80
2018-12-21T22:28:57.766Z,114.53
2018-12-21T22:31:04.330Z,118.97
2018-12-21T22:33:17.688Z,114.33
2018-12-21T22:35:34.701Z,113.63
2018-12-21T22:37:41.381Z,115.07
2018-12-21T22:42:45.174Z,118.77
2018-12-21T22:45:03.022Z,120.77
2018-12-21T22:49:44.194Z,112.73
2018-12-21T22:51:50.990Z,108.33
2018-12-21T22:53:57.775Z,119.20
2018-12-21T22:56:04.991Z,114.40
2018-12-21T22:58:11.548Z,114.73
2018-12-21T23:00:29.718Z,120.13
2018-12-21T23:02:45.522Z,113.20
2018-12-21T23:05:06.177Z,116.10
2018-12-21T23:07:20.994Z,108.47
2018-12-21T23:09:27.835Z,113.00
2018-12-21T23:11:34.861Z,112.17
2018-12-21T23:13:41.779Z,118.90
2018-12-21T23:15:48.883Z,113.33
2018-12-21T23:17:55.628Z,117.87
2018-12-21T23:20:02.255Z,119.57
2018-12-21T23:22:09.074Z,114.07
2018-12-21T23:24:17.562Z,129.93
2018-12-21T23:26:26.511Z,124.20
2018-12-21T23:28:40.893Z,130.80
2018-12-21T23:30:52.684Z,133.33
2018-12-21T23:33:10.970Z,128.70
2018-12-21T23:35:34.263Z,140.83
2018-12-21T23:37:40.969Z,136.33
2018-12-21T23:42:29.244Z,123.10
2018-12-21T23:44:46.385Z,115.97
2018-12-21T23:46:53.719Z,122.80
2018-12-21T23:49:00.454Z,133.43
2018-12-21T23:51:13.089Z,130.53
2018-12-21T23:53:25.365Z,130.67
2018-12-21T23:55:31.964Z,129.27
2018-12-21T23:57:38.457Z,130.50
2018-12-21T23:59:45.082Z,134.90
